sensor_id;sensor_type;location;lat;lon;timestamp;P1;durP1;ratioP1;P2;durP2;ratioP2
73980;SDS011;62348;51.412;5.436;2024-02-16T00:00:39;3.35;;;1.52;;
73980;SDS011;62348;51.412;5.436;2024-02-16T00:03:04;1.95;;;1.40;;
73980;SDS011;62348;51.412;5.436;2024-02-16T00:05:30;3.45;;;1.60;;
73980;SDS011;62348;51.412;5.436;2024-02-16T00:07:55;1.88;;;1.33;;
73980;SDS011;62348;51.412;5.436;2024-02-16T00:10:22;1.65;;;1.45;;
73980;SDS011;62348;51.412;5.436;2024-02-16T00:12:47;3.70;;;1.40;;
73980;SDS011;62348;51.412;5.436;2024-02-16T00:15:12;2.45;;;1.10;;
73980;SDS011;62348;51.412;5.436;2024-02-16T00:17:38;3.35;;;1.73;;
73980;SDS011;62348;51.412;5.436;2024-02-16T00:20:03;1.83;;;1.13;;
73980;SDS011;62348;51.412;5.436;2024-02-16T00:22:32;1.45;;;1.05;;
73980;SDS011;62348;51.412;5.436;2024-02-16T00:24:58;3.03;;;1.15;;
73980;SDS011;62348;51.412;5.436;2024-02-16T00:27:23;0.95;;;0.95;;
73980;SDS011;62348;51.412;5.436;2024-02-16T00:29:48;1.48;;;1.13;;
73980;SDS011;62348;51.412;5.436;2024-02-16T00:32:14;0.85;;;0.85;;
73980;SDS011;62348;51.412;5.436;2024-02-16T00:34:43;2.05;;;1.00;;
73980;SDS011;62348;51.412;5.436;2024-02-16T00:37:08;1.50;;;1.15;;
73980;SDS011;62348;51.412;5.436;2024-02-16T00:39:35;1.70;;;1.60;;
73980;SDS011;62348;51.412;5.436;2024-02-16T00:42:02;2.47;;;1.20;;
73980;SDS011;62348;51.412;5.436;2024-02-16T00:44:27;2.15;;;1.23;;
73980;SDS011;62348;51.412;5.436;2024-02-16T00:46:53;4.20;;;1.45;;
73980;SDS011;62348;51.412;5.436;2024-02-16T00:49:18;1.92;;;1.48;;
73980;SDS011;62348;51.412;5.436;2024-02-16T00:51:44;3.53;;;1.27;;
73980;SDS011;62348;51.412;5.436;2024-02-16T00:54:09;1.85;;;1.00;;
73980;SDS011;62348;51.412;5.436;2024-02-16T00:56:34;2.30;;;1.10;;
73980;SDS011;62348;51.412;5.436;2024-02-16T00:59:00;2.53;;;1.02;;
73980;SDS011;62348;51.412;5.436;2024-02-16T01:01:25;1.35;;;0.90;;
73980;SDS011;62348;51.412;5.436;2024-02-16T01:03:54;4.03;;;1.35;;
73980;SDS011;62348;51.412;5.436;2024-02-16T01:06:20;1.25;;;1.00;;
73980;SDS011;62348;51.412;5.436;2024-02-16T01:08:45;0.98;;;0.77;;
73980;SDS011;62348;51.412;5.436;2024-02-16T01:11:14;1.00;;;0.90;;
73980;SDS011;62348;51.412;5.436;2024-02-16T01:13:39;1.85;;;1.00;;
73980;SDS011;62348;51.412;5.436;2024-02-16T01:16:05;1.95;;;1.33;;
73980;SDS011;62348;51.412;5.436;2024-02-16T01:18:31;1.90;;;1.20;;
73980;SDS011;62348;51.412;5.436;2024-02-16T01:20:57;1.55;;;0.75;;
73980;SDS011;62348;51.412;5.436;2024-02-16T01:23:23;2.35;;;1.40;;
73980;SDS011;62348;51.412;5.436;2024-02-16T01:25:49;3.40;;;1.05;;
73980;SDS011;62348;51.412;5.436;2024-02-16T01:28:14;0.93;;;0.93;;
73980;SDS011;62348;51.412;5.436;2024-02-16T01:30:40;1.75;;;1.13;;
73980;SDS011;62348;51.412;5.436;2024-02-16T01:33:05;1.50;;;0.98;;
73980;SDS011;62348;51.412;5.436;2024-02-16T01:35:34;1.42;;;1.25;;
73980;SDS011;62348;51.412;5.436;2024-02-16T01:38:00;1.23;;;1.13;;
73980;SDS011;62348;51.412;5.436;2024-02-16T01:40:26;2.58;;;1.10;;
73980;SDS011;62348;51.412;5.436;2024-02-16T01:42:52;1.38;;;1.25;;
73980;SDS011;62348;51.412;5.436;2024-02-16T01:45:20;1.55;;;1.00;;
73980;SDS011;62348;51.412;5.436;2024-02-16T01:47:47;2.30;;;0.98;;
73980;SDS011;62348;51.412;5.436;2024-02-16T01:50:15;1.23;;;1.13;;
73980;SDS011;62348;51.412;5.436;2024-02-16T01:52:42;0.80;;;0.80;;
73980;SDS011;62348;51.412;5.436;2024-02-16T01:55:09;0.80;;;0.80;;
73980;SDS011;62348;51.412;5.436;2024-02-16T01:57:45;2.17;;;1.00;;
73980;SDS011;62348;51.412;5.436;2024-02-16T02:00:12;2.00;;;0.85;;
73980;SDS011;62348;51.412;5.436;2024-02-16T02:02:40;1.23;;;0.90;;
73980;SDS011;62348;51.412;5.436;2024-02-16T02:05:06;0.77;;;0.75;;
73980;SDS011;62348;51.412;5.436;2024-02-16T02:07:32;2.28;;;0.80;;
73980;SDS011;62348;51.412;5.436;2024-02-16T02:09:58;1.65;;;1.15;;
73980;SDS011;62348;51.412;5.436;2024-02-16T02:12:23;1.08;;;0.73;;
73980;SDS011;62348;51.412;5.436;2024-02-16T02:14:49;2.45;;;1.00;;
73980;SDS011;62348;51.412;5.436;2024-02-16T02:17:15;0.90;;;0.90;;
73980;SDS011;62348;51.412;5.436;2024-02-16T02:19:41;0.93;;;0.80;;
73980;SDS011;62348;51.412;5.436;2024-02-16T02:22:13;1.17;;;0.98;;
73980;SDS011;62348;51.412;5.436;2024-02-16T02:24:42;1.35;;;1.10;;
73980;SDS011;62348;51.412;5.436;2024-02-16T02:27:12;1.95;;;1.15;;
73980;SDS011;62348;51.412;5.436;2024-02-16T02:29:38;2.80;;;1.00;;
73980;SDS011;62348;51.412;5.436;2024-02-16T02:32:04;1.02;;;1.02;;
73980;SDS011;62348;51.412;5.436;2024-02-16T02:34:30;1.80;;;0.90;;
73980;SDS011;62348;51.412;5.436;2024-02-16T02:36:55;2.90;;;1.35;;
73980;SDS011;62348;51.412;5.436;2024-02-16T02:39:21;1.95;;;1.08;;
73980;SDS011;62348;51.412;5.436;2024-02-16T02:41:46;1.30;;;1.20;;
73980;SDS011;62348;51.412;5.436;2024-02-16T02:44:12;1.10;;;1.00;;
73980;SDS011;62348;51.412;5.436;2024-02-16T02:46:37;2.15;;;1.25;;
73980;SDS011;62348;51.412;5.436;2024-02-16T02:49:03;1.42;;;1.10;;
73980;SDS011;62348;51.412;5.436;2024-02-16T02:51:29;1.80;;;1.38;;
73980;SDS011;62348;51.412;5.436;2024-02-16T02:53:54;1.63;;;1.23;;
73980;SDS011;62348;51.412;5.436;2024-02-16T02:56:20;1.95;;;1.58;;
73980;SDS011;62348;51.412;5.436;2024-02-16T02:58:45;2.70;;;1.02;;
73980;SDS011;62348;51.412;5.436;2024-02-16T03:01:11;0.68;;;0.68;;
73980;SDS011;62348;51.412;5.436;2024-02-16T03:03:37;1.05;;;0.95;;
73980;SDS011;62348;51.412;5.436;2024-02-16T03:06:03;2.20;;;1.05;;
73980;SDS011;62348;51.412;5.436;2024-02-16T03:08:29;1.50;;;1.02;;
73980;SDS011;62348;51.412;5.436;2024-02-16T03:10:55;1.50;;;1.08;;
73980;SDS011;62348;51.412;5.436;2024-02-16T03:13:20;1.52;;;1.42;;
73980;SDS011;62348;51.412;5.436;2024-02-16T03:15:45;3.08;;;0.95;;
73980;SDS011;62348;51.412;5.436;2024-02-16T03:18:11;2.97;;;0.80;;
73980;SDS011;62348;51.412;5.436;2024-02-16T03:20:36;3.88;;;1.40;;
73980;SDS011;62348;51.412;5.436;2024-02-16T03:23:02;0.95;;;0.90;;
73980;SDS011;62348;51.412;5.436;2024-02-16T03:25:28;0.77;;;0.77;;
73980;SDS011;62348;51.412;5.436;2024-02-16T03:27:54;1.27;;;0.77;;
73980;SDS011;62348;51.412;5.436;2024-02-16T03:30:19;0.98;;;0.82;;
73980;SDS011;62348;51.412;5.436;2024-02-16T03:32:48;1.45;;;0.98;;
73980;SDS011;62348;51.412;5.436;2024-02-16T03:35:17;2.92;;;1.35;;
73980;SDS011;62348;51.412;5.436;2024-02-16T03:37:43;1.63;;;1.00;;
73980;SDS011;62348;51.412;5.436;2024-02-16T03:40:09;0.65;;;0.65;;
73980;SDS011;62348;51.412;5.436;2024-02-16T03:42:36;1.23;;;0.77;;
73980;SDS011;62348;51.412;5.436;2024-02-16T03:45:02;2.20;;;1.15;;
73980;SDS011;62348;51.412;5.436;2024-02-16T03:47:27;2.05;;;0.95;;
73980;SDS011;62348;51.412;5.436;2024-02-16T03:49:53;2.13;;;1.00;;
73980;SDS011;62348;51.412;5.436;2024-02-16T03:52:18;2.00;;;1.13;;
73980;SDS011;62348;51.412;5.436;2024-02-16T03:54:44;1.63;;;1.00;;
73980;SDS011;62348;51.412;5.436;2024-02-16T03:57:13;1.02;;;1.00;;
73980;SDS011;62348;51.412;5.436;2024-02-16T03:59:38;1.33;;;0.90;;
73980;SDS011;62348;51.412;5.436;2024-02-16T04:02:04;2.28;;;1.88;;
73980;SDS011;62348;51.412;5.436;2024-02-16T04:04:29;2.25;;;1.30;;
73980;SDS011;62348;51.412;5.436;2024-02-16T04:06:55;3.95;;;1.15;;
73980;SDS011;62348;51.412;5.436;2024-02-16T04:09:20;3.33;;;1.02;;
73980;SDS011;62348;51.412;5.436;2024-02-16T04:11:46;1.23;;;1.00;;
73980;SDS011;62348;51.412;5.436;2024-02-16T04:14:12;2.50;;;1.05;;
73980;SDS011;62348;51.412;5.436;2024-02-16T04:16:37;1.30;;;1.08;;
73980;SDS011;62348;51.412;5.436;2024-02-16T04:19:02;4.88;;;1.20;;
73980;SDS011;62348;51.412;5.436;2024-02-16T04:21:28;1.80;;;1.40;;
73980;SDS011;62348;51.412;5.436;2024-02-16T04:23:53;1.30;;;1.20;;
73980;SDS011;62348;51.412;5.436;2024-02-16T04:26:19;2.22;;;1.25;;
73980;SDS011;62348;51.412;5.436;2024-02-16T04:28:44;1.15;;;1.00;;
73980;SDS011;62348;51.412;5.436;2024-02-16T04:31:10;2.65;;;1.02;;
73980;SDS011;62348;51.412;5.436;2024-02-16T04:33:35;1.90;;;1.20;;
73980;SDS011;62348;51.412;5.436;2024-02-16T04:36:00;1.70;;;1.23;;
73980;SDS011;62348;51.412;5.436;2024-02-16T04:38:26;1.50;;;1.27;;
73980;SDS011;62348;51.412;5.436;2024-02-16T04:40:51;2.67;;;1.20;;
73980;SDS011;62348;51.412;5.436;2024-02-16T04:43:16;1.33;;;1.00;;
73980;SDS011;62348;51.412;5.436;2024-02-16T04:45:42;5.60;;;1.33;;
73980;SDS011;62348;51.412;5.436;2024-02-16T04:48:08;1.58;;;1.48;;
73980;SDS011;62348;51.412;5.436;2024-02-16T04:50:34;2.13;;;1.30;;
73980;SDS011;62348;51.412;5.436;2024-02-16T04:53:00;3.33;;;0.90;;
73980;SDS011;62348;51.412;5.436;2024-02-16T04:55:29;1.27;;;1.10;;
73980;SDS011;62348;51.412;5.436;2024-02-16T04:57:56;1.33;;;1.23;;
73980;SDS011;62348;51.412;5.436;2024-02-16T05:00:21;1.40;;;1.30;;
73980;SDS011;62348;51.412;5.436;2024-02-16T05:02:47;1.58;;;1.25;;
73980;SDS011;62348;51.412;5.436;2024-02-16T05:05:12;1.42;;;1.33;;
73980;SDS011;62348;51.412;5.436;2024-02-16T05:07:38;1.00;;;1.00;;
73980;SDS011;62348;51.412;5.436;2024-02-16T05:10:08;3.55;;;1.17;;
73980;SDS011;62348;51.412;5.436;2024-02-16T05:12:33;1.30;;;1.20;;
73980;SDS011;62348;51.412;5.436;2024-02-16T05:14:59;1.17;;;0.90;;
73980;SDS011;62348;51.412;5.436;2024-02-16T05:17:24;1.95;;;1.10;;
73980;SDS011;62348;51.412;5.436;2024-02-16T05:19:50;1.75;;;1.15;;
73980;SDS011;62348;51.412;5.436;2024-02-16T05:22:15;4.78;;;2.78;;
73980;SDS011;62348;51.412;5.436;2024-02-16T05:24:43;2.55;;;1.48;;
73980;SDS011;62348;51.412;5.436;2024-02-16T05:27:09;2.60;;;1.10;;
73980;SDS011;62348;51.412;5.436;2024-02-16T05:29:35;1.70;;;1.13;;
73980;SDS011;62348;51.412;5.436;2024-02-16T05:32:01;1.33;;;1.25;;
73980;SDS011;62348;51.412;5.436;2024-02-16T05:34:26;1.40;;;1.00;;
73980;SDS011;62348;51.412;5.436;2024-02-16T05:36:57;3.22;;;1.38;;
73980;SDS011;62348;51.412;5.436;2024-02-16T05:39:22;2.33;;;1.20;;
73980;SDS011;62348;51.412;5.436;2024-02-16T05:41:56;1.58;;;1.05;;
73980;SDS011;62348;51.412;5.436;2024-02-16T05:44:22;1.05;;;0.90;;
73980;SDS011;62348;51.412;5.436;2024-02-16T05:46:47;1.90;;;1.30;;
73980;SDS011;62348;51.412;5.436;2024-02-16T05:49:13;2.60;;;1.27;;
73980;SDS011;62348;51.412;5.436;2024-02-16T05:51:40;1.88;;;1.38;;
73980;SDS011;62348;51.412;5.436;2024-02-16T05:54:06;6.78;;;1.65;;
73980;SDS011;62348;51.412;5.436;2024-02-16T05:56:33;3.63;;;1.85;;
73980;SDS011;62348;51.412;5.436;2024-02-16T05:59:02;3.63;;;1.65;;
73980;SDS011;62348;51.412;5.436;2024-02-16T06:01:29;4.07;;;1.50;;
73980;SDS011;62348;51.412;5.436;2024-02-16T06:03:54;2.35;;;1.05;;
73980;SDS011;62348;51.412;5.436;2024-02-16T06:06:20;1.80;;;1.10;;
73980;SDS011;62348;51.412;5.436;2024-02-16T06:08:45;2.50;;;1.35;;
73980;SDS011;62348;51.412;5.436;2024-02-16T06:11:11;1.92;;;1.50;;
73980;SDS011;62348;51.412;5.436;2024-02-16T06:13:36;2.65;;;1.60;;
73980;SDS011;62348;51.412;5.436;2024-02-16T06:16:04;2.10;;;1.25;;
73980;SDS011;62348;51.412;5.436;2024-02-16T06:18:33;6.50;;;2.40;;
73980;SDS011;62348;51.412;5.436;2024-02-16T06:20:59;2.90;;;1.95;;
73980;SDS011;62348;51.412;5.436;2024-02-16T06:23:24;3.35;;;1.30;;
73980;SDS011;62348;51.412;5.436;2024-02-16T06:25:50;2.42;;;1.30;;
73980;SDS011;62348;51.412;5.436;2024-02-16T06:28:15;1.63;;;1.08;;
73980;SDS011;62348;51.412;5.436;2024-02-16T06:30:41;3.92;;;1.73;;
73980;SDS011;62348;51.412;5.436;2024-02-16T06:33:06;2.28;;;1.00;;
73980;SDS011;62348;51.412;5.436;2024-02-16T06:35:31;1.80;;;1.52;;
73980;SDS011;62348;51.412;5.436;2024-02-16T06:37:57;2.72;;;1.95;;
73980;SDS011;62348;51.412;5.436;2024-02-16T06:40:22;1.67;;;1.10;;
73980;SDS011;62348;51.412;5.436;2024-02-16T06:42:48;2.90;;;1.88;;
73980;SDS011;62348;51.412;5.436;2024-02-16T06:45:13;2.22;;;1.38;;
73980;SDS011;62348;51.412;5.436;2024-02-16T06:47:39;2.05;;;1.05;;
73980;SDS011;62348;51.412;5.436;2024-02-16T06:50:04;2.35;;;1.50;;
73980;SDS011;62348;51.412;5.436;2024-02-16T06:52:30;1.83;;;1.48;;
73980;SDS011;62348;51.412;5.436;2024-02-16T06:54:55;2.22;;;1.40;;
73980;SDS011;62348;51.412;5.436;2024-02-16T06:57:21;1.30;;;1.15;;
73980;SDS011;62348;51.412;5.436;2024-02-16T06:59:46;2.35;;;1.20;;
73980;SDS011;62348;51.412;5.436;2024-02-16T07:02:12;1.30;;;1.00;;
73980;SDS011;62348;51.412;5.436;2024-02-16T07:04:39;1.58;;;1.30;;
73980;SDS011;62348;51.412;5.436;2024-02-16T07:07:05;4.35;;;1.35;;
73980;SDS011;62348;51.412;5.436;2024-02-16T07:09:31;1.77;;;1.27;;
73980;SDS011;62348;51.412;5.436;2024-02-16T07:11:57;4.43;;;1.52;;
73980;SDS011;62348;51.412;5.436;2024-02-16T07:14:23;2.97;;;1.50;;
73980;SDS011;62348;51.412;5.436;2024-02-16T07:16:49;3.03;;;1.45;;
73980;SDS011;62348;51.412;5.436;2024-02-16T07:19:14;6.57;;;1.48;;
73980;SDS011;62348;51.412;5.436;2024-02-16T07:21:40;2.35;;;1.00;;
73980;SDS011;62348;51.412;5.436;2024-02-16T07:24:05;2.38;;;1.65;;
73980;SDS011;62348;51.412;5.436;2024-02-16T07:26:31;2.08;;;1.80;;
73980;SDS011;62348;51.412;5.436;2024-02-16T07:28:56;1.75;;;1.50;;
73980;SDS011;62348;51.412;5.436;2024-02-16T07:31:22;2.28;;;1.40;;
73980;SDS011;62348;51.412;5.436;2024-02-16T07:33:47;2.40;;;1.42;;
73980;SDS011;62348;51.412;5.436;2024-02-16T07:36:13;2.63;;;1.40;;
73980;SDS011;62348;51.412;5.436;2024-02-16T07:38:39;1.75;;;1.50;;
73980;SDS011;62348;51.412;5.436;2024-02-16T07:41:04;2.65;;;1.40;;
73980;SDS011;62348;51.412;5.436;2024-02-16T07:43:31;2.45;;;1.30;;
73980;SDS011;62348;51.412;5.436;2024-02-16T07:45:56;1.88;;;1.33;;
73980;SDS011;62348;51.412;5.436;2024-02-16T07:48:22;8.38;;;1.58;;
73980;SDS011;62348;51.412;5.436;2024-02-16T07:50:48;2.30;;;1.60;;
73980;SDS011;62348;51.412;5.436;2024-02-16T07:53:15;2.15;;;1.38;;
73980;SDS011;62348;51.412;5.436;2024-02-16T07:55:41;2.80;;;1.75;;
73980;SDS011;62348;51.412;5.436;2024-02-16T07:58:07;2.38;;;1.27;;
73980;SDS011;62348;51.412;5.436;2024-02-16T08:00:32;2.45;;;1.65;;
73980;SDS011;62348;51.412;5.436;2024-02-16T08:02:58;3.25;;;1.60;;
73980;SDS011;62348;51.412;5.436;2024-02-16T08:05:24;5.10;;;1.85;;
73980;SDS011;62348;51.412;5.436;2024-02-16T08:07:50;2.85;;;1.83;;
73980;SDS011;62348;51.412;5.436;2024-02-16T08:10:18;1.77;;;1.33;;
73980;SDS011;62348;51.412;5.436;2024-02-16T08:12:45;2.45;;;2.00;;
73980;SDS011;62348;51.412;5.436;2024-02-16T08:15:12;2.00;;;1.77;;
73980;SDS011;62348;51.412;5.436;2024-02-16T08:17:38;2.97;;;1.83;;
73980;SDS011;62348;51.412;5.436;2024-02-16T08:20:04;2.63;;;1.50;;
73980;SDS011;62348;51.412;5.436;2024-02-16T08:22:30;3.28;;;1.95;;
73980;SDS011;62348;51.412;5.436;2024-02-16T08:24:57;1.85;;;1.50;;
73980;SDS011;62348;51.412;5.436;2024-02-16T08:27:22;2.92;;;1.60;;
73980;SDS011;62348;51.412;5.436;2024-02-16T08:29:49;2.63;;;1.58;;
73980;SDS011;62348;51.412;5.436;2024-02-16T08:32:16;2.83;;;1.50;;
73980;SDS011;62348;51.412;5.436;2024-02-16T08:34:42;1.83;;;1.55;;
73980;SDS011;62348;51.412;5.436;2024-02-16T08:37:07;4.22;;;1.92;;
73980;SDS011;62348;51.412;5.436;2024-02-16T08:39:33;2.63;;;1.63;;
73980;SDS011;62348;51.412;5.436;2024-02-16T08:41:59;3.83;;;1.42;;
73980;SDS011;62348;51.412;5.436;2024-02-16T08:44:25;2.47;;;1.88;;
73980;SDS011;62348;51.412;5.436;2024-02-16T08:46:51;7.50;;;2.15;;
73980;SDS011;62348;51.412;5.436;2024-02-16T08:49:18;4.88;;;1.40;;
73980;SDS011;62348;51.412;5.436;2024-02-16T08:51:44;2.83;;;1.50;;
73980;SDS011;62348;51.412;5.436;2024-02-16T08:54:09;4.53;;;1.95;;
73980;SDS011;62348;51.412;5.436;2024-02-16T08:56:35;4.55;;;2.05;;
73980;SDS011;62348;51.412;5.436;2024-02-16T08:59:03;6.97;;;2.60;;
73980;SDS011;62348;51.412;5.436;2024-02-16T09:01:32;2.85;;;1.98;;
73980;SDS011;62348;51.412;5.436;2024-02-16T09:04:01;4.95;;;1.77;;
73980;SDS011;62348;51.412;5.436;2024-02-16T09:06:28;1.92;;;1.30;;
73980;SDS011;62348;51.412;5.436;2024-02-16T09:08:54;2.35;;;1.75;;
73980;SDS011;62348;51.412;5.436;2024-02-16T09:11:20;2.97;;;2.20;;
73980;SDS011;62348;51.412;5.436;2024-02-16T09:13:46;3.63;;;1.77;;
73980;SDS011;62348;51.412;5.436;2024-02-16T09:16:11;4.38;;;1.63;;
73980;SDS011;62348;51.412;5.436;2024-02-16T09:18:37;1.63;;;1.48;;
73980;SDS011;62348;51.412;5.436;2024-02-16T09:21:05;10.88;;;2.33;;
73980;SDS011;62348;51.412;5.436;2024-02-16T09:23:32;5.38;;;1.65;;
73980;SDS011;62348;51.412;5.436;2024-02-16T09:25:58;6.18;;;2.20;;
73980;SDS011;62348;51.412;5.436;2024-02-16T09:28:24;4.60;;;1.98;;
73980;SDS011;62348;51.412;5.436;2024-02-16T09:30:50;4.38;;;2.13;;
73980;SDS011;62348;51.412;5.436;2024-02-16T09:33:16;3.72;;;1.88;;
73980;SDS011;62348;51.412;5.436;2024-02-16T09:35:41;4.47;;;2.42;;
73980;SDS011;62348;51.412;5.436;2024-02-16T09:38:06;4.82;;;1.48;;
73980;SDS011;62348;51.412;5.436;2024-02-16T09:40:32;3.53;;;1.83;;
73980;SDS011;62348;51.412;5.436;2024-02-16T09:42:58;3.03;;;1.85;;
73980;SDS011;62348;51.412;5.436;2024-02-16T09:45:23;2.60;;;1.90;;
73980;SDS011;62348;51.412;5.436;2024-02-16T09:47:51;4.13;;;2.38;;
73980;SDS011;62348;51.412;5.436;2024-02-16T09:50:19;1.92;;;1.52;;
73980;SDS011;62348;51.412;5.436;2024-02-16T09:52:48;4.03;;;1.70;;
73980;SDS011;62348;51.412;5.436;2024-02-16T09:55:14;4.13;;;2.38;;
73980;SDS011;62348;51.412;5.436;2024-02-16T09:57:41;2.58;;;1.95;;
73980;SDS011;62348;51.412;5.436;2024-02-16T10:00:08;2.42;;;1.77;;
73980;SDS011;62348;51.412;5.436;2024-02-16T10:07:38;2.33;;;1.70;;
73980;SDS011;62348;51.412;5.436;2024-02-16T10:10:05;2.45;;;1.90;;
73980;SDS011;62348;51.412;5.436;2024-02-16T10:12:30;4.03;;;2.28;;
73980;SDS011;62348;51.412;5.436;2024-02-16T10:14:56;4.50;;;2.08;;
73980;SDS011;62348;51.412;5.436;2024-02-16T10:17:23;2.78;;;2.30;;
73980;SDS011;62348;51.412;5.436;2024-02-16T10:19:55;9.32;;;2.38;;
73980;SDS011;62348;51.412;5.436;2024-02-16T10:22:24;2.72;;;2.03;;
73980;SDS011;62348;51.412;5.436;2024-02-16T10:24:49;2.00;;;1.80;;
73980;SDS011;62348;51.412;5.436;2024-02-16T10:27:18;2.65;;;1.90;;
73980;SDS011;62348;51.412;5.436;2024-02-16T10:29:44;4.57;;;2.40;;
73980;SDS011;62348;51.412;5.436;2024-02-16T10:32:14;5.40;;;2.70;;
73980;SDS011;62348;51.412;5.436;2024-02-16T10:34:40;4.80;;;2.38;;
73980;SDS011;62348;51.412;5.436;2024-02-16T10:37:06;4.60;;;3.17;;
73980;SDS011;62348;51.412;5.436;2024-02-16T10:39:32;3.15;;;2.10;;
73980;SDS011;62348;51.412;5.436;2024-02-16T10:41:57;4.68;;;2.50;;
73980;SDS011;62348;51.412;5.436;2024-02-16T10:44:25;4.72;;;2.50;;
73980;SDS011;62348;51.412;5.436;2024-02-16T10:46:55;3.80;;;2.67;;
73980;SDS011;62348;51.412;5.436;2024-02-16T10:49:23;4.20;;;2.13;;
73980;SDS011;62348;51.412;5.436;2024-02-16T10:51:52;3.78;;;2.25;;
73980;SDS011;62348;51.412;5.436;2024-02-16T10:56:48;2.25;;;1.60;;
73980;SDS011;62348;51.412;5.436;2024-02-16T10:59:13;5.78;;;2.05;;
73980;SDS011;62348;51.412;5.436;2024-02-16T11:01:42;5.30;;;1.98;;
73980;SDS011;62348;51.412;5.436;2024-02-16T11:04:16;2.60;;;1.63;;
73980;SDS011;62348;51.412;5.436;2024-02-16T11:06:48;4.25;;;2.28;;
73980;SDS011;62348;51.412;5.436;2024-02-16T11:11:52;3.72;;;2.33;;
73980;SDS011;62348;51.412;5.436;2024-02-16T11:14:18;4.65;;;2.10;;
73980;SDS011;62348;51.412;5.436;2024-02-16T11:16:44;3.17;;;2.15;;
73980;SDS011;62348;51.412;5.436;2024-02-16T11:19:10;2.55;;;2.10;;
73980;SDS011;62348;51.412;5.436;2024-02-16T11:21:35;3.28;;;2.25;;
73980;SDS011;62348;51.412;5.436;2024-02-16T11:24:07;3.25;;;2.08;;
73980;SDS011;62348;51.412;5.436;2024-02-16T11:26:41;5.68;;;2.65;;
73980;SDS011;62348;51.412;5.436;2024-02-16T11:29:08;5.68;;;2.80;;
73980;SDS011;62348;51.412;5.436;2024-02-16T11:31:35;5.45;;;2.55;;
73980;SDS011;62348;51.412;5.436;2024-02-16T11:34:00;6.80;;;2.85;;
73980;SDS011;62348;51.412;5.436;2024-02-16T11:36:26;4.65;;;2.97;;
73980;SDS011;62348;51.412;5.436;2024-02-16T11:38:52;4.55;;;3.15;;
73980;SDS011;62348;51.412;5.436;2024-02-16T11:41:17;6.45;;;3.53;;
73980;SDS011;62348;51.412;5.436;2024-02-16T11:43:43;5.60;;;2.53;;
73980;SDS011;62348;51.412;5.436;2024-02-16T11:46:15;7.57;;;2.75;;
73980;SDS011;62348;51.412;5.436;2024-02-16T11:48:42;4.68;;;2.67;;
73980;SDS011;62348;51.412;5.436;2024-02-16T11:51:08;3.88;;;2.53;;
73980;SDS011;62348;51.412;5.436;2024-02-16T11:53:33;5.45;;;2.67;;
73980;SDS011;62348;51.412;5.436;2024-02-16T11:55:59;5.07;;;2.78;;
73980;SDS011;62348;51.412;5.436;2024-02-16T11:58:26;6.82;;;3.13;;
73980;SDS011;62348;51.412;5.436;2024-02-16T12:00:52;3.78;;;2.67;;
73980;SDS011;62348;51.412;5.436;2024-02-16T12:03:21;5.40;;;2.80;;
73980;SDS011;62348;51.412;5.436;2024-02-16T12:05:54;6.00;;;2.83;;
73980;SDS011;62348;51.412;5.436;2024-02-16T12:08:21;6.07;;;2.97;;
73980;SDS011;62348;51.412;5.436;2024-02-16T12:10:50;5.63;;;2.97;;
73980;SDS011;62348;51.412;5.436;2024-02-16T12:13:16;6.07;;;3.78;;
73980;SDS011;62348;51.412;5.436;2024-02-16T12:15:46;5.00;;;3.13;;
73980;SDS011;62348;51.412;5.436;2024-02-16T12:18:22;10.50;;;3.60;;
73980;SDS011;62348;51.412;5.436;2024-02-16T12:23:35;4.65;;;3.10;;
73980;SDS011;62348;51.412;5.436;2024-02-16T12:26:01;5.22;;;2.85;;
73980;SDS011;62348;51.412;5.436;2024-02-16T12:28:28;4.22;;;2.80;;
73980;SDS011;62348;51.412;5.436;2024-02-16T12:30:56;4.55;;;3.15;;
73980;SDS011;62348;51.412;5.436;2024-02-16T12:33:23;5.70;;;2.97;;
73980;SDS011;62348;51.412;5.436;2024-02-16T12:35:48;6.82;;;3.00;;
73980;SDS011;62348;51.412;5.436;2024-02-16T12:38:15;5.35;;;3.42;;
73980;SDS011;62348;51.412;5.436;2024-02-16T12:40:45;8.30;;;3.38;;
73980;SDS011;62348;51.412;5.436;2024-02-16T12:43:11;7.15;;;3.63;;
73980;SDS011;62348;51.412;5.436;2024-02-16T12:45:37;4.65;;;3.20;;
73980;SDS011;62348;51.412;5.436;2024-02-16T12:48:03;7.05;;;3.70;;
73980;SDS011;62348;51.412;5.436;2024-02-16T12:50:29;9.35;;;4.55;;
73980;SDS011;62348;51.412;5.436;2024-02-16T12:52:55;5.68;;;3.50;;
73980;SDS011;62348;51.412;5.436;2024-02-16T12:55:22;11.00;;;4.35;;
73980;SDS011;62348;51.412;5.436;2024-02-16T12:57:48;7.43;;;5.30;;
73980;SDS011;62348;51.412;5.436;2024-02-16T13:00:14;6.00;;;4.53;;
73980;SDS011;62348;51.412;5.436;2024-02-16T13:02:40;5.20;;;3.78;;
73980;SDS011;62348;51.412;5.436;2024-02-16T13:05:05;4.93;;;3.92;;
73980;SDS011;62348;51.412;5.436;2024-02-16T13:07:31;4.55;;;3.75;;
73980;SDS011;62348;51.412;5.436;2024-02-16T13:09:56;5.38;;;4.10;;
73980;SDS011;62348;51.412;5.436;2024-02-16T13:12:22;6.55;;;3.88;;
73980;SDS011;62348;51.412;5.436;2024-02-16T13:14:48;5.20;;;3.65;;
73980;SDS011;62348;51.412;5.436;2024-02-16T13:17:14;5.25;;;3.75;;
73980;SDS011;62348;51.412;5.436;2024-02-16T13:19:39;5.38;;;3.88;;
73980;SDS011;62348;51.412;5.436;2024-02-16T13:22:05;4.70;;;3.47;;
73980;SDS011;62348;51.412;5.436;2024-02-16T13:24:30;4.70;;;3.85;;
73980;SDS011;62348;51.412;5.436;2024-02-16T13:26:56;6.28;;;3.55;;
73980;SDS011;62348;51.412;5.436;2024-02-16T13:29:21;3.83;;;2.35;;
73980;SDS011;62348;51.412;5.436;2024-02-16T13:31:47;3.33;;;2.38;;
73980;SDS011;62348;51.412;5.436;2024-02-16T13:34:12;3.28;;;2.47;;
73980;SDS011;62348;51.412;5.436;2024-02-16T13:36:40;3.30;;;1.95;;
73980;SDS011;62348;51.412;5.436;2024-02-16T13:39:06;2.22;;;2.00;;
73980;SDS011;62348;51.412;5.436;2024-02-16T13:41:32;3.95;;;2.05;;
73980;SDS011;62348;51.412;5.436;2024-02-16T13:43:58;2.33;;;2.13;;
73980;SDS011;62348;51.412;5.436;2024-02-16T13:46:24;5.38;;;3.55;;
73980;SDS011;62348;51.412;5.436;2024-02-16T13:48:49;2.03;;;1.80;;
73980;SDS011;62348;51.412;5.436;2024-02-16T13:51:14;2.45;;;1.92;;
73980;SDS011;62348;51.412;5.436;2024-02-16T13:53:40;2.33;;;1.73;;
73980;SDS011;62348;51.412;5.436;2024-02-16T13:56:05;2.90;;;2.13;;
73980;SDS011;62348;51.412;5.436;2024-02-16T13:58:31;2.08;;;1.85;;
73980;SDS011;62348;51.412;5.436;2024-02-16T14:01:00;2.20;;;2.00;;
73980;SDS011;62348;51.412;5.436;2024-02-16T14:03:28;3.30;;;2.10;;
73980;SDS011;62348;51.412;5.436;2024-02-16T14:05:53;1.95;;;1.75;;
73980;SDS011;62348;51.412;5.436;2024-02-16T14:08:19;4.32;;;1.88;;
73980;SDS011;62348;51.412;5.436;2024-02-16T14:10:45;3.92;;;2.30;;
73980;SDS011;62348;51.412;5.436;2024-02-16T14:13:10;4.13;;;2.47;;
73980;SDS011;62348;51.412;5.436;2024-02-16T14:15:36;2.17;;;1.85;;
73980;SDS011;62348;51.412;5.436;2024-02-16T14:18:01;3.00;;;2.13;;
73980;SDS011;62348;51.412;5.436;2024-02-16T14:20:26;3.30;;;2.10;;
73980;SDS011;62348;51.412;5.436;2024-02-16T14:22:52;3.90;;;2.20;;
73980;SDS011;62348;51.412;5.436;2024-02-16T14:25:17;6.20;;;1.75;;
73980;SDS011;62348;51.412;5.436;2024-02-16T14:27:44;2.83;;;2.28;;
73980;SDS011;62348;51.412;5.436;2024-02-16T14:30:10;3.17;;;2.42;;
73980;SDS011;62348;51.412;5.436;2024-02-16T14:32:36;2.80;;;2.53;;
73980;SDS011;62348;51.412;5.436;2024-02-16T14:35:02;6.55;;;2.45;;
73980;SDS011;62348;51.412;5.436;2024-02-16T14:37:28;4.00;;;2.75;;
73980;SDS011;62348;51.412;5.436;2024-02-16T14:39:53;4.53;;;1.90;;
73980;SDS011;62348;51.412;5.436;2024-02-16T14:42:23;3.88;;;2.33;;
73980;SDS011;62348;51.412;5.436;2024-02-16T14:44:49;3.22;;;2.08;;
73980;SDS011;62348;51.412;5.436;2024-02-16T14:47:14;3.30;;;2.55;;
73980;SDS011;62348;51.412;5.436;2024-02-16T14:49:40;3.35;;;2.35;;
73980;SDS011;62348;51.412;5.436;2024-02-16T14:52:05;3.85;;;2.42;;
73980;SDS011;62348;51.412;5.436;2024-02-16T14:54:32;5.05;;;2.85;;